EDT,Max TemperatureF,Mean TemperatureF,Min TemperatureF,Max Dew PointF,MeanDew PointF,Min DewpointF,Max Humidity, Mean Humidity, Min Humidity, Max Sea Level PressureIn, Mean Sea Level PressureIn, Min Sea Level PressureIn, Max VisibilityMiles, Mean VisibilityMiles, Min VisibilityMiles, Max Wind SpeedMPH, Mean Wind SpeedMPH, Max Gust SpeedMPH,PrecipitationIn, CloudCover, Events, WindDirDegrees
2014-8-1,94,87,80,78,75,73,82,71,60,29.99,29.96,29.93,10,10,10,15,5,21,0.02,2,,95
2014-8-2,91,87,82,78,76,74,82,73,64,29.97,29.93,29.89,10,10,10,17,4,25,0.01,2,Thunderstorm,37
2014-8-3,83,79,74,79,77,74,94,84,74,30.00,29.94,29.88,10,6,0,17,3,23,3.84,6,Rain-Thunderstorm,217
2014-8-4,85,81,76,79,76,74,97,86,74,30.08,29.99,29.92,10,8,1,16,5,25,0.71,5,Rain-Thunderstorm,217
2014-8-5,92,85,78,81,78,75,100,83,66,30.10,30.06,29.99,10,9,1,12,4,19,0.06,2,Rain,219
2014-8-6,92,85,78,78,75,74,91,78,64,30.08,30.04,30.01,10,10,9,7,1,10,0.00,3,,153
2014-8-7,91,86,80,78,76,74,91,78,64,30.04,30.00,29.95,10,10,10,12,3,17,0.00,1,Thunderstorm,111
2014-8-8,91,88,84,78,76,74,80,72,63,30.06,30.02,29.96,10,10,10,10,6,17,0.00,1,,150
2014-8-9,92,88,83,77,75,73,80,70,59,30.10,30.05,30.01,10,10,10,8,5,13,0.00,1,,153
2014-8-10,92,88,83,79,77,75,80,70,60,30.08,30.05,30.01,10,10,10,9,5,13,0.00,1,,111
2014-8-11,92,88,83,77,76,74,74,67,60,30.08,30.04,30.00,10,10,10,9,5,12,0.00,1,,111
2014-8-12,92,88,84,80,76,75,74,69,64,30.05,30.02,29.99,10,10,10,12,5,17,0.00,1,,145
2014-8-13,93,89,84,79,76,72,74,69,63,30.06,30.02,29.99,10,10,10,9,4,14,0.00,1,,169
2014-8-14,95,89,83,77,75,72,80,68,56,30.07,30.03,29.99,10,10,9,10,4,15,0.00,0,Thunderstorm,198
2014-8-15,95,85,74,79,75,69,82,69,56,30.12,30.05,30.00,10,9,2,17,4,25,0.50,2,Rain-Thunderstorm,168
2014-8-16,93,88,82,79,77,75,85,75,64,30.11,30.07,29.99,10,10,7,14,5,20,T,1,,107
2014-8-17,92,89,85,78,77,75,77,71,64,30.11,30.07,30.03,10,9,8,13,8,19,0.00,1,,108
2014-8-18,93,88,83,79,77,75,80,70,60,30.07,30.02,29.98,10,10,9,10,6,17,0.00,1,,105
2014-8-19,94,88,82,78,76,74,85,73,60,30.06,30.01,29.97,10,10,10,14,4,19,0.00,0,Thunderstorm,157
2014-8-20,94,89,83,79,77,72,79,68,56,30.10,30.05,30.00,10,10,10,15,4,20,0.00,1,,85
2014-8-21,94,89,84,78,77,75,82,71,60,30.11,30.07,30.04,10,10,10,15,6,20,0.00,0,,102
2014-8-22,93,88,82,78,75,71,82,67,52,30.09,30.03,29.98,10,10,9,12,7,17,T,1,Thunderstorm,90
2014-8-23,92,84,75,78,75,71,80,70,60,29.98,29.92,29.86,10,8,1,22,6,27,0.55,3,Rain-Thunderstorm,33
2014-8-24,92,84,76,78,76,73,100,80,59,29.88,29.82,29.75,10,9,2,16,4,23,0.40,1,Rain-Thunderstorm,358
2014-8-25,93,86,79,80,78,76,100,80,60,29.79,29.76,29.72,10,8,2,24,7,32,0.28,3,Rain-Thunderstorm,26
2014-8-26,91,85,79,82,76,72,100,80,59,29.89,29.82,29.76,10,10,8,23,12,29,T,5,Rain-Thunderstorm,64
2014-8-27,92,87,82,79,76,72,88,74,59,29.99,29.92,29.86,10,10,9,15,10,22,0.00,3,,90
2014-8-28,92,85,78,80,78,76,88,76,64,30.02,29.97,29.94,10,9,2,14,7,22,0.12,2,Rain,177
2014-8-29,93,89,85,80,79,77,82,74,66,30.08,30.01,29.98,10,10,8,12,8,19,0.00,2,,115
2014-8-30,92,84,75,78,76,69,82,73,64,30.09,30.06,30.01,10,9,2,24,10,35,0.09,2,Rain-Thunderstorm,105
2014-8-31,91,84,76,82,77,74,94,77,59,30.09,30.06,30.03,10,9,1,23,9,30,0.34,3,Rain-Thunderstorm,102